F/V Atalante — FVRQ — position and weather

sailwx.info

Track history (hours):
 
Tides and Currents Weather Stations Pressure Air Temp Water Temp Dewpoint Dewpoint Depression Visibility Wind Speed Wind Dir Waves Ship Positions

F/V Atalante

Last reported at 2017-Feb-23 06:11 UTC. Time now 2017-Feb-25 05:23 UTC.
Position N 47°24' W 005°07'.

Length 21 m; draft 3.9 m.

Type: . MMSI: 228854000.

Date/timePositionNaut miles runAvg speedWind from/ knotsBaromVisibWave heightAir tempDewpointWater temp
2017-Feb-23 06:11N 47°24' W 005°07'2 2.6
2017-Feb-23 05:30N 47°22' W 005°07'3 2.5
2017-Feb-23 04:28N 47°19' W 005°07'6 2.1
2017-Feb-23 01:29N 47°16' W 004°59'3 2.6
2017-Feb-23 00:29N 47°16' W 004°56'3 2.5
2017-Feb-22 23:24N 47°17' W 004°52'5 2.5
2017-Feb-22 21:20N 47°22' W 004°49'34 6.8
2017-Feb-22 16:22N 47°48' W 004°17'3 0.4
2017-Feb-22 10:33N 47°46' W 004°20'3110.2
2017-Feb-22 07:33N 47°21' W 004°47'3 1.0
2017-Feb-22 04:32N 47°21' W 004°51'3 3.0
2017-Feb-22 03:33N 47°18' W 004°51'3 3.0
2017-Feb-22 02:33N 47°16' W 004°52'2 1.8
2017-Feb-22 01:33N 47°15' W 004°50'3 2.3
2017-Feb-22 00:18N 47°18' W 004°52'2 2.7
2017-Feb-21 23:32N 47°18' W 004°55'3 3.0
2017-Feb-21 22:33N 47°15' W 004°53'2 2.0
2017-Feb-21 21:30N 47°15' W 004°50'3 2.5
2017-Feb-21 20:27N 47°17' W 004°52'2 1.8
2017-Feb-21 19:27N 47°16' W 004°53'2 0.2
2017-Feb-21 08:08N 47°14' W 004°51'3 0.8
2017-Feb-21 04:26N 47°17' W 004°52'3 0.9
2017-Feb-21 01:29N 47°19' W 004°54'2 1.7
2017-Feb-21 00:33N 47°18' W 004°55'3 2.8
2017-Feb-20 23:33N 47°15' W 004°55'41 1.0
2017-Feb-19 08:13N 47°48' W 004°17'10 9.9
2017-Feb-19 07:12N 47°41' W 004°28'710.4
2017-Feb-19 06:33N 47°36' W 004°35'1410.2
2017-Feb-19 05:13N 47°27' W 004°50'11 9.3
2017-Feb-19 04:04N 47°19' W 005°01'4 1.7
2017-Feb-19 01:22N 47°24' W 004°60'0 0.2
2017-Feb-19 00:32N 47°24' W 004°60'2 1.9
2017-Feb-18 23:32N 47°22' W 004°60'3 2.6
2017-Feb-18 22:28N 47°19' W 005°01'3 2.7
2017-Feb-18 21:33N 47°17' W 005°02'3 0.2
2017-Feb-18 06:30N 47°17' W 004°58'6 3.0
2017-Feb-18 04:33N 47°16' W 005°06'2 2.4
2017-Feb-18 03:33N 47°14' W 005°08'4 3.4
2017-Feb-18 02:32N 47°11' W 005°06'3 3.4
2017-Feb-18 01:33N 47°09' W 005°03'6 2.0
2017-Feb-17 22:31N 47°15' W 005°01'6 1.9
2017-Feb-17 19:34N 47°19' W 005°05'3 0.1
2017-Feb-16 21:16N 47°19' W 005°09'54 3.0
2017-Feb-16 03:26N 47°15' W 003°49'7 7.8
2017-Feb-16 02:33N 47°15' W 003°39'8 7.9
2017-Feb-16 01:33N 47°15' W 003°27'8 8.2
2017-Feb-16 00:33N 47°15' W 003°15'9 9.2
2017-Feb-15 23:33N 47°16' W 003°02'9 8.7
2017-Feb-15 22:33N 47°17' W 002°49'8 7.9
2017-Feb-15 21:33N 47°19' W 002°38'5 5.0
2017-Feb-15 20:33N 47°21' W 002°31'  
Track history (hours):
 
Tides and Currents Weather Stations Pressure Air Temp Water Temp Dewpoint Dewpoint Depression Visibility Wind Speed Wind Dir Waves Ship Positions

F/V Atalante

Last reported at 2017-Feb-23 06:11 UTC. Time now 2017-Feb-25 05:23 UTC.
Position N 47°24' W 005°07'.

Length 21 m; draft 3.9 m.

Type: . MMSI: 228854000.

Date/timePositionNaut miles runAvg speedWind from/ knotsBaromVisibWave heightAir tempDewpointWater temp
2017-Feb-23 06:11N 47°24' W 005°07'2 2.6
2017-Feb-23 05:30N 47°22' W 005°07'3 2.5
2017-Feb-23 04:28N 47°19' W 005°07'6 2.1
2017-Feb-23 01:29N 47°16' W 004°59'3 2.6
2017-Feb-23 00:29N 47°16' W 004°56'3 2.5
2017-Feb-22 23:24N 47°17' W 004°52'5 2.5
2017-Feb-22 21:20N 47°22' W 004°49'34 6.8
2017-Feb-22 16:22N 47°48' W 004°17'3 0.4
2017-Feb-22 10:33N 47°46' W 004°20'3110.2
2017-Feb-22 07:33N 47°21' W 004°47'3 1.0
2017-Feb-22 04:32N 47°21' W 004°51'3 3.0
2017-Feb-22 03:33N 47°18' W 004°51'3 3.0
2017-Feb-22 02:33N 47°16' W 004°52'2 1.8
2017-Feb-22 01:33N 47°15' W 004°50'3 2.3
2017-Feb-22 00:18N 47°18' W 004°52'2 2.7
2017-Feb-21 23:32N 47°18' W 004°55'3 3.0
2017-Feb-21 22:33N 47°15' W 004°53'2 2.0
2017-Feb-21 21:30N 47°15' W 004°50'3 2.5
2017-Feb-21 20:27N 47°17' W 004°52'2 1.8
2017-Feb-21 19:27N 47°16' W 004°53'2 0.2
2017-Feb-21 08:08N 47°14' W 004°51'3 0.8
2017-Feb-21 04:26N 47°17' W 004°52'3 0.9
2017-Feb-21 01:29N 47°19' W 004°54'2 1.7
2017-Feb-21 00:33N 47°18' W 004°55'3 2.8
2017-Feb-20 23:33N 47°15' W 004°55'41 1.0
2017-Feb-19 08:13N 47°48' W 004°17'10 9.9
2017-Feb-19 07:12N 47°41' W 004°28'710.4
2017-Feb-19 06:33N 47°36' W 004°35'1410.2
2017-Feb-19 05:13N 47°27' W 004°50'11 9.3
2017-Feb-19 04:04N 47°19' W 005°01'4 1.7
2017-Feb-19 01:22N 47°24' W 004°60'0 0.2
2017-Feb-19 00:32N 47°24' W 004°60'2 1.9
2017-Feb-18 23:32N 47°22' W 004°60'3 2.6
2017-Feb-18 22:28N 47°19' W 005°01'3 2.7
2017-Feb-18 21:33N 47°17' W 005°02'3 0.2
2017-Feb-18 06:30N 47°17' W 004°58'6 3.0
2017-Feb-18 04:33N 47°16' W 005°06'2 2.4
2017-Feb-18 03:33N 47°14' W 005°08'4 3.4
2017-Feb-18 02:32N 47°11' W 005°06'3 3.4
2017-Feb-18 01:33N 47°09' W 005°03'6 2.0
2017-Feb-17 22:31N 47°15' W 005°01'6 1.9
2017-Feb-17 19:34N 47°19' W 005°05'3 0.1
2017-Feb-16 21:16N 47°19' W 005°09'54 3.0
2017-Feb-16 03:26N 47°15' W 003°49'7 7.8
2017-Feb-16 02:33N 47°15' W 003°39'8 7.9
2017-Feb-16 01:33N 47°15' W 003°27'8 8.2
2017-Feb-16 00:33N 47°15' W 003°15'9 9.2
2017-Feb-15 23:33N 47°16' W 003°02'9 8.7
2017-Feb-15 22:33N 47°17' W 002°49'8 7.9
2017-Feb-15 21:33N 47°19' W 002°38'5 5.0
2017-Feb-15 20:33N 47°21' W 002°31'  

Dump ship's entire track history